Terminal Aerodrome Forecast
Issued by NWS

Home | Current Version | Previous Version | Text Only | Print | Product List | Glossary On
Versions: 1 2 3 4 5 6 7 8 9 10 11 12 13 14
000
FTUS44 KBMX 011400 AAA
TAFTOI
TAF AMD
KTOI 011402Z 0114/0212 14006KT P6SM OVC014
     FM011900 16008KT 3SM -RA BR OVC007
     FM020600 25009KT 5SM -RA BR OVC007
     FM021000 30011KT P6SM OVC015=

USA.gov is the U.S. government's official web portal to all federal, state and local government web resources and services.